Wenden, Arizona
Current Conditions -  °F | °C
As of 8:55 PM on Friday 24 Oct 2014 (Local Time) from KBXK Reporting Station
NA  
Wind Chill: 75°   Ceiling: NA
Heat Index: 75°   Visibility: 10mi
Dew Point: 45°   Wind: 6mph
Humidity: 34%   Direction: 40°NE
Pressure: 29.97"   Gusts: NA
Location:  33.82°N, 113.54°W
Report Text: KBXK 250355Z AUTO 04005KT 10SM 24/07 A2997 RMK AO1
Loading
Personal Weather Stations






























Interactive Weather Map New forecast layout! Learn more

10-Day Weather Forecast

Advertisements
Track Severe Weather on mobile